createdAt,value
2018-02-15T00:00:30.979Z,94927.77
2018-02-15T00:02:57.592Z,94928.58
2018-02-15T00:05:24.243Z,94934.15
2018-02-15T00:07:50.843Z,94938.72
2018-02-15T00:10:17.360Z,94932.86
2018-02-15T00:12:44.029Z,94943.33
2018-02-15T00:15:10.600Z,94941.42
2018-02-15T00:17:37.162Z,94938.15
2018-02-15T00:20:03.726Z,94935.07
2018-02-15T00:22:30.362Z,94928.55
2018-02-15T00:24:56.944Z,94928.17
2018-02-15T00:27:23.526Z,94917.20
2018-02-15T00:29:50.094Z,94923.20
2018-02-15T00:32:16.678Z,94917.06
2018-02-15T00:34:43.288Z,94922.09
2018-02-15T00:37:09.902Z,94917.99
2018-02-15T00:39:36.473Z,94929.23
2018-02-15T00:42:03.047Z,94931.13
2018-02-15T00:44:29.712Z,94920.02
2018-02-15T00:46:56.285Z,94930.92
2018-02-15T00:49:22.879Z,94936.66
2018-02-15T00:51:49.491Z,94923.66
2018-02-15T00:54:16.123Z,94930.64
2018-02-15T00:56:42.715Z,94933.09
2018-02-15T00:59:09.303Z,94934.28
2018-02-15T01:01:35.859Z,94927.98
2018-02-15T01:04:02.553Z,94921.32
2018-02-15T01:06:29.152Z,94930.00
2018-02-15T01:08:55.760Z,94929.74
2018-02-15T01:11:22.338Z,94921.08
2018-02-15T01:13:48.935Z,94928.56
2018-02-15T01:16:15.524Z,94924.05
2018-02-15T01:18:42.103Z,94931.04
2018-02-15T01:21:08.778Z,94926.73
2018-02-15T01:23:35.360Z,94929.23
2018-02-15T01:26:02.002Z,94930.55
2018-02-15T01:28:28.610Z,94923.53
2018-02-15T01:30:55.219Z,94930.78
2018-02-15T01:33:21.858Z,94920.21
2018-02-15T01:35:48.450Z,94924.27
2018-02-15T01:38:15.147Z,94931.23
2018-02-15T01:40:41.729Z,94938.59
2018-02-15T01:43:08.325Z,94944.22
2018-02-15T01:45:35.018Z,94945.06
2018-02-15T01:48:01.584Z,94953.47
2018-02-15T01:50:28.165Z,94951.37
2018-02-15T01:52:54.786Z,94950.83
2018-02-15T01:55:21.354Z,94955.63
2018-02-15T01:57:47.977Z,94952.15
2018-02-15T02:00:14.571Z,94952.95
2018-02-15T02:02:41.125Z,94958.71
2018-02-15T02:05:07.713Z,94960.48
2018-02-15T02:07:34.270Z,94961.13
2018-02-15T02:10:00.832Z,94962.94
2018-02-15T02:12:27.417Z,94963.46
2018-02-15T02:14:53.995Z,94964.43
2018-02-15T02:17:20.590Z,94971.33
2018-02-15T02:19:47.172Z,94963.01
2018-02-15T02:22:13.845Z,94963.77
2018-02-15T02:24:40.413Z,94976.09
2018-02-15T02:27:06.980Z,94961.61
2018-02-15T02:29:33.586Z,94966.89
2018-02-15T02:32:00.186Z,94969.13
2018-02-15T02:34:26.793Z,94969.53
2018-02-15T02:36:53.388Z,94963.63
2018-02-15T02:39:20.021Z,94965.33
2018-02-15T02:41:46.713Z,94973.78
2018-02-15T02:44:13.286Z,94969.66
2018-02-15T02:46:39.912Z,94970.58
2018-02-15T02:49:06.550Z,94968.30
2018-02-15T02:51:33.138Z,94972.52
2018-02-15T02:53:59.757Z,94977.87
2018-02-15T02:56:26.341Z,94984.38
2018-02-15T02:58:52.914Z,94977.58
2018-02-15T03:01:19.531Z,94973.22
2018-02-15T03:03:46.138Z,94974.32
2018-02-15T03:06:12.726Z,94976.56
2018-02-15T03:08:39.342Z,94984.20
2018-02-15T03:11:05.972Z,94982.06
2018-02-15T03:13:32.587Z,94987.04
2018-02-15T03:15:59.202Z,94972.63
2018-02-15T03:18:25.792Z,94983.42
2018-02-15T03:20:52.452Z,94998.55
2018-02-15T03:23:19.074Z,94983.45
2018-02-15T03:25:45.709Z,94988.91
2018-02-15T03:28:12.284Z,95001.37
2018-02-15T03:30:38.902Z,94991.64
2018-02-15T03:33:05.503Z,95011.84
2018-02-15T03:35:32.120Z,95014.50
2018-02-15T03:37:58.685Z,95017.33
2018-02-15T03:40:25.338Z,95010.09
2018-02-15T03:42:51.936Z,95008.09
2018-02-15T03:45:18.550Z,95011.88
2018-02-15T03:47:45.218Z,95002.03
2018-02-15T03:50:11.858Z,95021.94
2018-02-15T03:52:38.503Z,95020.31
2018-02-15T03:55:05.068Z,95026.08
2018-02-15T03:57:31.669Z,95020.61
2018-02-15T03:59:58.248Z,95024.23
2018-02-15T04:02:24.875Z,95021.83
2018-02-15T04:04:51.479Z,95028.11
2018-02-15T04:07:18.094Z,95021.95
2018-02-15T04:09:44.681Z,95021.55
2018-02-15T04:12:11.317Z,95017.28
2018-02-15T04:14:37.903Z,95035.70
2018-02-15T04:17:04.532Z,95027.01
2018-02-15T04:19:31.145Z,95031.47
2018-02-15T04:21:57.773Z,95043.53
2018-02-15T04:24:24.347Z,95036.86
2018-02-15T04:26:51.010Z,95045.63
2018-02-15T04:29:17.574Z,95045.83
2018-02-15T04:31:44.133Z,95047.64
2018-02-15T04:34:10.783Z,95054.06
2018-02-15T04:36:37.377Z,95049.69
2018-02-15T04:39:04.001Z,95057.97
2018-02-15T04:41:30.570Z,95064.72
2018-02-15T04:43:57.169Z,95062.97
2018-02-15T04:46:23.737Z,95061.97
2018-02-15T04:48:50.378Z,95069.62
2018-02-15T04:51:16.963Z,95074.05
2018-02-15T04:53:43.578Z,95078.08
2018-02-15T04:56:10.174Z,95075.91
2018-02-15T04:58:36.768Z,95079.80
2018-02-15T05:01:03.351Z,95080.49
2018-02-15T05:03:29.985Z,95085.16
2018-02-15T05:05:56.557Z,95083.81
2018-02-15T05:08:23.163Z,95075.78
2018-02-15T05:10:49.739Z,95090.63
2018-02-15T05:13:16.316Z,95083.52
2018-02-15T05:15:43.010Z,95093.16
2018-02-15T05:18:09.610Z,95080.16
2018-02-15T05:20:36.205Z,95062.25
2018-02-15T05:23:02.807Z,95090.61
2018-02-15T05:25:29.413Z,95079.49
2018-02-15T05:27:55.982Z,95084.33
2018-02-15T05:30:22.550Z,95077.62
2018-02-15T05:32:49.128Z,95094.63
2018-02-15T05:35:15.749Z,95089.64
2018-02-15T05:37:42.355Z,95099.85
2018-02-15T05:40:08.923Z,95105.85
2018-02-15T05:42:35.493Z,95094.61
2018-02-15T05:45:02.075Z,95095.64
2018-02-15T05:47:28.630Z,95104.49
2018-02-15T05:49:55.294Z,95111.73
2018-02-15T05:52:21.900Z,95095.12
2018-02-15T05:54:48.479Z,95099.15
2018-02-15T05:57:15.110Z,95119.25
2018-02-15T05:59:41.719Z,95121.12
2018-02-15T06:02:08.323Z,95118.03
2018-02-15T06:04:34.884Z,95121.37
2018-02-15T06:07:01.488Z,95123.78
2018-02-15T06:09:28.057Z,95128.63
2018-02-15T06:11:54.620Z,95128.62
2018-02-15T06:14:21.237Z,95124.20
2018-02-15T06:16:47.884Z,95128.20
2018-02-15T06:19:14.442Z,95128.60
2018-02-15T06:21:41.098Z,95126.72
2018-02-15T06:24:07.702Z,95129.70
2018-02-15T06:26:34.268Z,95132.51
2018-02-15T06:29:03.337Z,95138.54
2018-02-15T06:31:29.961Z,95126.11
2018-02-15T06:33:56.626Z,95138.63
2018-02-15T06:36:23.215Z,95130.33
2018-02-15T06:38:49.862Z,95141.31
2018-02-15T06:41:16.657Z,95126.80
2018-02-15T06:43:43.408Z,95131.17
2018-02-15T06:46:10.014Z,95140.05
2018-02-15T06:48:36.580Z,95125.06
2018-02-15T06:51:03.300Z,95128.95
2018-02-15T06:53:29.879Z,95130.91
2018-02-15T06:55:56.441Z,95141.95
2018-02-15T06:58:23.255Z,95139.33
2018-02-15T07:00:50.161Z,95139.64
2018-02-15T07:03:16.791Z,95136.80
2018-02-15T07:05:43.392Z,95150.61
2018-02-15T07:08:10.007Z,95158.80
2018-02-15T07:10:36.645Z,95168.50
2018-02-15T07:13:03.246Z,95168.48
2018-02-15T07:15:29.883Z,95161.97
2018-02-15T07:17:57.008Z,95154.91
2018-02-15T07:20:23.371Z,95159.95
2018-02-15T07:22:49.972Z,95176.25
2018-02-15T07:25:16.776Z,95161.93
2018-02-15T07:27:43.480Z,95157.59
2018-02-15T07:30:10.069Z,95176.42
2018-02-15T07:32:36.714Z,95163.70
2018-02-15T07:35:03.467Z,95200.25
2018-02-15T07:37:30.069Z,95196.16
2018-02-15T07:39:56.639Z,95202.98
2018-02-15T07:42:23.341Z,95201.73
2018-02-15T07:44:50.212Z,95189.17
2018-02-15T07:47:16.815Z,95189.77
2018-02-15T07:49:43.597Z,95185.91
2018-02-15T07:52:10.203Z,95199.69
2018-02-15T07:54:36.814Z,95201.92
2018-02-15T07:57:03.558Z,95201.25
2018-02-15T07:59:30.169Z,95211.06
2018-02-15T08:01:56.854Z,95198.24
2018-02-15T08:04:23.553Z,95204.94
2018-02-15T08:06:50.164Z,95210.39
2018-02-15T08:09:16.857Z,95212.53
2018-02-15T08:11:43.841Z,95207.56
2018-02-15T08:14:10.459Z,95228.94
2018-02-15T08:16:37.141Z,95223.89
2018-02-15T08:19:03.716Z,95225.47
2018-02-15T08:21:30.321Z,95236.09
2018-02-15T08:23:56.992Z,95221.44
2018-02-15T08:26:23.591Z,95245.60
2018-02-15T08:28:50.264Z,95250.98
2018-02-15T08:31:16.952Z,95219.34
2018-02-15T08:33:43.652Z,95238.67
2018-02-15T08:36:10.336Z,95253.13
2018-02-15T08:38:36.990Z,95271.66
2018-02-15T08:41:03.615Z,95250.39
2018-02-15T08:43:30.420Z,95253.87
2018-02-15T08:45:57.090Z,95281.83
2018-02-15T08:48:23.709Z,95275.25
2018-02-15T08:50:50.292Z,95275.75
2018-02-15T08:53:16.986Z,95276.59
2018-02-15T08:55:43.664Z,95281.97
2018-02-15T08:58:10.284Z,95270.05
2018-02-15T09:00:36.958Z,95269.45
2018-02-15T09:03:03.529Z,95263.33
2018-02-15T09:05:30.205Z,95257.02
2018-02-15T09:07:56.792Z,95261.16
2018-02-15T09:10:23.420Z,95262.92
2018-02-15T09:12:50.006Z,95251.97
2018-02-15T09:15:16.630Z,95256.75
2018-02-15T09:17:43.288Z,95279.35
2018-02-15T09:20:17.574Z,95277.55
2018-02-15T09:22:44.236Z,95287.28
2018-02-15T09:25:10.950Z,95240.97
2018-02-15T09:27:37.500Z,95272.04
2018-02-15T09:30:04.153Z,95251.70
2018-02-15T09:32:31.096Z,95259.98
2018-02-15T09:34:57.728Z,95252.59
2018-02-15T09:37:24.381Z,95214.37
2018-02-15T09:44:36.110Z,95260.56
2018-02-15T09:47:02.736Z,95276.77
2018-02-15T09:51:17.138Z,95240.77
2018-02-15T09:53:43.702Z,95272.64
2018-02-15T09:56:10.374Z,95272.53
2018-02-15T09:58:36.940Z,95268.69
2018-02-15T10:01:03.796Z,95272.22
2018-02-15T10:03:30.395Z,95265.13
2018-02-15T10:05:57.264Z,95266.05
2018-02-15T10:08:23.850Z,95264.46
2018-02-15T10:10:50.674Z,95265.48
2018-02-15T10:13:17.243Z,95246.82
2018-02-15T10:15:43.844Z,95236.18
2018-02-15T10:18:10.486Z,95263.97
2018-02-15T10:20:37.162Z,95260.98
2018-02-15T10:23:03.763Z,95250.41
2018-02-15T10:25:30.383Z,95237.48
2018-02-15T10:27:56.997Z,95242.52
2018-02-15T10:30:23.898Z,95262.56
2018-02-15T10:32:54.467Z,95257.02
2018-02-15T10:35:21.096Z,95268.32
2018-02-15T10:37:47.768Z,95258.59
2018-02-15T10:40:14.358Z,95234.23
2018-02-15T10:42:40.994Z,95253.39
2018-02-15T10:45:07.651Z,95275.99
2018-02-15T10:47:34.631Z,95270.23
2018-02-15T10:50:01.246Z,95250.16
2018-02-15T11:37:12.812Z,95265.38
2018-02-15T11:39:39.490Z,95258.06
2018-02-15T11:42:06.166Z,95263.73
2018-02-15T11:44:32.909Z,95266.33
2018-02-15T11:46:59.502Z,95257.89
2018-02-15T11:49:26.192Z,95259.30
2018-02-15T11:51:52.814Z,95256.56
2018-02-15T11:54:19.413Z,95267.55
2018-02-15T11:56:46.065Z,95267.34
2018-02-15T11:59:12.704Z,95271.90
2018-02-15T12:01:39.340Z,95255.61
2018-02-15T12:04:05.983Z,95229.82
2018-02-15T12:06:32.656Z,95221.72
2018-02-15T12:08:59.307Z,95240.39
2018-02-15T12:11:26.071Z,95259.91
2018-02-15T12:13:55.093Z,95256.39
2018-02-15T12:16:21.967Z,95220.88
2018-02-15T12:18:48.878Z,95261.77
2018-02-15T12:21:15.745Z,95251.22
2018-02-15T12:23:42.571Z,95233.95
2018-02-15T12:26:09.193Z,95226.33
2018-02-15T12:28:35.916Z,95261.53
2018-02-15T12:31:02.610Z,95249.14
2018-02-15T12:33:29.242Z,95249.98
2018-02-15T12:35:55.989Z,95251.71
2018-02-15T12:38:22.660Z,95234.34
2018-02-15T12:40:49.273Z,95262.09
2018-02-15T12:43:15.922Z,95262.08
2018-02-15T12:45:42.579Z,95252.91
2018-02-15T12:48:09.216Z,95257.50
2018-02-15T12:50:35.808Z,95256.83
2018-02-15T12:53:02.575Z,95253.34
2018-02-15T12:55:29.219Z,95254.75
2018-02-15T12:57:58.065Z,95260.27
2018-02-15T13:00:24.665Z,95272.70
2018-02-15T13:02:51.307Z,95261.67
2018-02-15T13:05:17.891Z,95278.17
2018-02-15T13:07:44.609Z,95267.63
2018-02-15T13:10:13.395Z,95244.28
2018-02-15T13:12:40.041Z,95252.52
2018-02-15T13:15:06.711Z,95256.84
2018-02-15T13:17:50.287Z,95263.06
2018-02-15T13:20:17.254Z,95263.34
2018-02-15T13:22:43.949Z,95272.45
2018-02-15T13:25:11.340Z,95284.39
2018-02-15T13:27:38.032Z,95291.06
2018-02-15T13:30:04.760Z,95289.23
2018-02-15T13:32:31.605Z,95264.55
2018-02-15T13:34:58.425Z,95300.88
2018-02-15T13:37:25.362Z,95293.06
2018-02-15T13:39:52.573Z,95307.87
2018-02-15T13:42:19.247Z,95277.77
2018-02-15T13:44:46.308Z,95299.28
2018-02-15T13:47:13.587Z,95302.03
2018-02-15T13:49:40.523Z,95283.50
2018-02-15T13:52:07.410Z,95279.78
2018-02-15T13:54:34.208Z,95306.13
2018-02-15T13:57:02.479Z,95309.41
2018-02-15T13:59:29.691Z,95312.82
2018-02-15T14:01:56.782Z,95311.11
2018-02-15T14:04:26.617Z,95309.19
2018-02-15T14:06:53.205Z,95312.34
2018-02-15T14:09:20.678Z,95305.75
2018-02-15T14:11:47.822Z,95312.02
2018-02-15T14:14:14.670Z,95281.06
2018-02-15T14:16:41.550Z,95300.11
2018-02-15T14:19:08.752Z,95312.42
2018-02-15T14:21:35.468Z,95309.70
2018-02-15T14:24:08.622Z,95318.48
2018-02-15T14:26:35.371Z,95295.23
2018-02-15T14:29:02.275Z,95309.62
2018-02-15T14:31:31.309Z,95305.89
2018-02-15T14:33:58.142Z,95310.36
2018-02-15T14:36:24.804Z,95306.08
2018-02-15T14:38:51.915Z,95308.67
2018-02-15T14:41:19.251Z,95307.66
2018-02-15T14:43:51.723Z,95317.63
2018-02-15T14:46:18.650Z,95287.47
2018-02-15T14:48:45.350Z,95316.84
2018-02-15T14:51:11.932Z,95313.52
2018-02-15T14:53:41.505Z,95317.30
2018-02-15T14:56:08.077Z,95313.76
2018-02-15T14:58:34.968Z,95326.44
2018-02-15T15:01:01.563Z,95301.62
2018-02-15T15:03:28.414Z,95325.16
2018-02-15T15:07:21.392Z,95319.05
2018-02-15T15:09:48.535Z,95322.15
2018-02-15T15:15:46.193Z,95309.27
2018-02-15T15:18:12.866Z,95333.48
2018-02-15T15:20:39.499Z,95340.92
2018-02-15T15:23:06.064Z,95356.54
2018-02-15T15:25:32.680Z,95351.27
2018-02-15T15:31:33.286Z,95375.95
2018-02-15T15:33:59.948Z,95363.86
2018-02-15T15:38:25.404Z,95379.73
2018-02-15T15:40:52.520Z,95381.13
2018-02-15T15:44:09.079Z,95376.23
2018-02-15T15:46:35.696Z,95380.75
2018-02-15T15:49:05.269Z,95373.17
2018-02-15T15:51:32.146Z,95393.73
2018-02-15T15:53:58.780Z,95393.92
2018-02-15T15:56:25.398Z,95402.41
2018-02-15T15:58:52.414Z,95409.27
2018-02-15T16:01:19.084Z,95418.08
2018-02-15T16:03:45.759Z,95403.30
2018-02-15T16:06:12.374Z,95418.61
2018-02-15T16:08:38.961Z,95407.70
2018-02-15T16:11:05.547Z,95426.16
2018-02-15T16:13:32.152Z,95424.16
2018-02-15T16:15:58.803Z,95441.89
2018-02-15T16:18:25.502Z,95447.62
2018-02-15T16:20:52.065Z,95450.53
2018-02-15T16:23:18.707Z,95462.26
2018-02-15T16:25:45.358Z,95448.77
2018-02-15T16:28:11.946Z,95451.25
2018-02-15T16:30:38.553Z,95469.09
2018-02-15T16:33:05.185Z,95467.34
2018-02-15T16:35:31.865Z,95466.03
2018-02-15T16:37:58.441Z,95461.36
2018-02-15T16:40:25.042Z,95473.72
2018-02-15T16:42:51.721Z,95477.98
2018-02-15T16:45:20.303Z,95489.02
2018-02-15T16:47:46.936Z,95487.86
2018-02-15T16:50:13.549Z,95487.97
2018-02-15T16:52:40.158Z,95496.69
2018-02-15T16:55:06.761Z,95490.66
2018-02-15T16:57:33.638Z,95501.81
2018-02-15T17:00:00.255Z,95500.34
2018-02-15T17:02:26.853Z,95501.97
2018-02-15T17:04:53.424Z,95512.83
2018-02-15T17:07:20.066Z,95510.14
2018-02-15T17:09:46.639Z,95507.20
2018-02-15T17:12:13.198Z,95504.37
2018-02-15T17:14:39.759Z,95517.53
2018-02-15T17:17:06.406Z,95521.04
2018-02-15T17:21:02.235Z,95523.61
2018-02-15T17:23:28.793Z,95517.45
2018-02-15T17:25:55.461Z,95511.95
2018-02-15T17:28:22.027Z,95523.77
2018-02-15T17:30:48.656Z,95521.34
2018-02-15T17:33:15.296Z,95522.42
2018-02-15T17:35:41.897Z,95518.27
2018-02-15T17:38:08.536Z,95533.44
2018-02-15T17:40:35.125Z,95529.67
2018-02-15T17:43:01.872Z,95532.64
2018-02-15T17:45:28.411Z,95536.52
2018-02-15T17:47:55.044Z,95527.80
2018-02-15T17:50:21.639Z,95519.91
2018-02-15T17:56:53.353Z,95540.56
2018-02-15T17:59:19.960Z,95536.96
2018-02-15T18:03:57.191Z,95544.33
2018-02-15T18:06:23.753Z,95544.33
2018-02-15T18:08:50.361Z,95535.20
2018-02-15T18:13:57.217Z,95543.40
2018-02-15T18:17:09.926Z,95529.95
2018-02-15T18:19:36.538Z,95538.81
2018-02-15T18:22:03.175Z,95536.54
2018-02-15T18:24:29.768Z,95536.15
2018-02-15T18:26:56.350Z,95549.70
2018-02-15T18:29:22.925Z,95544.61
2018-02-15T18:31:49.564Z,95557.11
2018-02-15T18:34:16.133Z,95553.34
2018-02-15T18:36:42.758Z,95548.36
2018-02-15T18:39:09.328Z,95559.39
2018-02-15T18:41:35.995Z,95553.75
2018-02-15T18:44:02.777Z,95537.48
2018-02-15T18:46:29.359Z,95512.39
2018-02-15T18:48:55.961Z,95544.20
2018-02-15T18:51:22.593Z,95556.70
2018-02-15T18:53:49.176Z,95557.77
2018-02-15T18:56:15.785Z,95553.34
2018-02-15T18:58:42.368Z,95559.92
2018-02-15T19:01:08.920Z,95556.98
2018-02-15T19:03:35.486Z,95569.06
2018-02-15T19:06:02.051Z,95561.94
2018-02-15T19:08:28.670Z,95566.78
2018-02-15T19:10:55.261Z,95571.48
2018-02-15T19:13:21.831Z,95563.96
2018-02-15T19:15:48.476Z,95560.31
2018-02-15T19:18:15.091Z,95565.02
2018-02-15T19:20:41.715Z,95569.17
2018-02-15T19:23:08.346Z,95545.96
2018-02-15T19:25:34.992Z,95565.56
2018-02-15T19:28:01.606Z,95561.93
2018-02-15T19:30:28.191Z,95563.94
2018-02-15T19:32:54.766Z,95567.30
2018-02-15T19:35:21.372Z,95573.75
2018-02-15T19:37:47.957Z,95543.25
2018-02-15T19:40:14.593Z,95573.34
2018-02-15T19:42:41.154Z,95564.63
2018-02-15T19:45:07.732Z,95576.84
2018-02-15T19:47:34.363Z,95572.37
2018-02-15T19:50:00.936Z,95574.16
2018-02-15T19:52:27.512Z,95581.53
2018-02-15T19:54:54.120Z,95572.78
2018-02-15T19:57:20.709Z,95586.51
2018-02-15T19:59:47.272Z,95588.09
2018-02-15T20:02:13.860Z,95582.83
2018-02-15T20:04:40.424Z,95596.65
2018-02-15T20:07:07.082Z,95598.53
2018-02-15T20:09:33.652Z,95597.69
2018-02-15T20:12:00.239Z,95601.17
2018-02-15T20:14:26.849Z,95607.78
2018-02-15T20:16:53.416Z,95598.62
2018-02-15T20:19:20.033Z,95578.89
2018-02-15T20:21:46.644Z,95606.58
2018-02-15T20:24:13.252Z,95586.81
2018-02-15T20:26:39.855Z,95601.48
2018-02-15T20:29:06.548Z,95599.73
2018-02-15T20:31:33.137Z,95609.80
2018-02-15T20:33:59.741Z,95613.02
2018-02-15T20:36:26.305Z,95609.27
2018-02-15T20:38:52.886Z,95610.70
2018-02-15T20:41:19.569Z,95610.57
2018-02-15T20:43:46.226Z,95609.77
2018-02-15T20:46:12.841Z,95602.11
2018-02-15T20:48:39.424Z,95615.53
2018-02-15T20:51:06.049Z,95615.00
2018-02-15T20:53:32.634Z,95621.08
2018-02-15T20:55:59.234Z,95608.55
2018-02-15T20:58:25.819Z,95611.23
2018-02-15T21:00:52.408Z,95611.78
2018-02-15T21:03:19.036Z,95614.86
2018-02-15T21:05:45.640Z,95613.66
2018-02-15T21:08:12.215Z,95619.69
2018-02-15T21:10:38.841Z,95617.28
2018-02-15T21:13:05.459Z,95612.70
2018-02-15T21:15:32.013Z,95617.55
2018-02-15T21:17:58.593Z,95619.95
2018-02-15T21:20:25.169Z,95601.53
2018-02-15T21:22:51.799Z,95614.45
2018-02-15T21:25:18.383Z,95612.98
2018-02-15T21:27:44.989Z,95615.93
2018-02-15T21:30:11.574Z,95607.34
2018-02-15T21:32:38.164Z,95616.33
2018-02-15T21:35:04.742Z,95619.82
2018-02-15T21:37:31.325Z,95627.88
2018-02-15T21:39:57.952Z,95632.16
2018-02-15T21:42:24.523Z,95637.13
2018-02-15T21:44:51.183Z,95639.14
2018-02-15T21:47:17.792Z,95625.00
2018-02-15T21:49:44.388Z,95624.19
2018-02-15T21:52:10.952Z,95635.55
2018-02-15T21:54:37.522Z,95642.42
2018-02-15T21:57:04.123Z,95644.80
2018-02-15T21:59:30.767Z,95643.22
2018-02-15T22:01:57.329Z,95641.84
2018-02-15T22:04:23.901Z,95653.17
2018-02-15T22:06:50.473Z,95573.10
2018-02-15T22:09:17.063Z,95608.22
2018-02-15T22:11:43.657Z,95658.80
2018-02-15T22:14:10.249Z,95644.12
2018-02-15T22:16:36.881Z,95616.27
2018-02-15T22:19:03.451Z,95651.55
2018-02-15T22:21:30.074Z,95642.64
2018-02-15T22:23:56.653Z,95644.97
2018-02-15T22:26:23.221Z,95638.22
2018-02-15T22:28:49.786Z,95657.46
2018-02-15T22:31:16.402Z,95658.75
2018-02-15T22:33:42.968Z,95677.83
2018-02-15T22:36:09.548Z,95666.39
2018-02-15T22:38:36.117Z,95671.87
2018-02-15T22:41:02.711Z,95660.41
2018-02-15T22:43:29.277Z,95688.61
2018-02-15T22:45:55.835Z,95691.29
2018-02-15T22:48:22.442Z,95691.29
2018-02-15T22:50:49.030Z,95694.37
2018-02-15T22:53:15.642Z,95694.39
2018-02-15T22:55:42.206Z,95692.59
2018-02-15T22:58:08.924Z,95706.19
2018-02-15T23:00:35.493Z,95695.53
2018-02-15T23:03:02.124Z,95709.00
2018-02-15T23:05:28.707Z,95703.39
2018-02-15T23:07:55.330Z,95702.30
2018-02-15T23:10:21.955Z,95704.99
2018-02-15T23:12:48.575Z,95697.45
2018-02-15T23:15:15.241Z,95699.34
2018-02-15T23:17:41.809Z,95709.14
2018-02-15T23:20:08.419Z,95714.50
2018-02-15T23:22:35.027Z,95718.54
2018-02-15T23:25:01.631Z,95712.63
2018-02-15T23:27:28.483Z,95713.50
2018-02-15T23:29:55.051Z,95699.08
2018-02-15T23:32:21.656Z,95706.31
2018-02-15T23:34:48.303Z,95706.91
2018-02-15T23:37:14.949Z,95700.08
2018-02-15T23:39:41.513Z,95687.59
2018-02-15T23:42:08.121Z,95705.83
2018-02-15T23:44:34.700Z,95686.07
2018-02-15T23:47:01.347Z,95708.12
2018-02-15T23:49:27.925Z,95711.48
2018-02-15T23:51:54.497Z,95714.69
2018-02-15T23:54:21.086Z,95713.97
2018-02-15T23:56:47.709Z,95710.78
2018-02-15T23:59:14.335Z,95710.90
